LELC

San Javier Airport

San Javier, Spain
TAF LELC 201700Z 2018/2118 05015KT 9999 SCT025 TX23/2113Z TN14/2106Z PROB30 TEMPO 2018/2022 05016G26KT PROB30 TEMPO 2100/2108 BKN014 PROB30 TEMPO 2105/2118 06016G27KT
Issued Valid From Valid To
Apr-20 @ 17:00 UTC
(2 hours ago)
Apr-20 @ 18:00 UTC
(39 minutes ago)
Apr-21 @ 18:00 UTC
(in 23 hours)
Apr-20 @ 18:00 to Apr-21 @ 18:00
TAF LELC 201700Z 2018/2118 05015KT 9999 SCT025 TX23/2113Z TN14/2106Z
Wind Visibility Clouds
50° at 15 knots 10,000+ meters
  • Scattered at 2,500' AGL
Temporary  (Probability 30%) Apr-20 @ 18:00 to Apr-20 @ 22:00
PROB30 TEMPO 2018/2022 05016G26KT
Wind
50° at 16 knots
 Gusting to 26 knots
Temporary  (Probability 30%) Apr-21 @ 00:00 to Apr-21 @ 08:00
PROB30 TEMPO 2100/2108 BKN014
Clouds
  • Broken at 1,400' AGL
Temporary  (Probability 30%) Apr-21 @ 05:00 to Apr-21 @ 18:00
PROB30 TEMPO 2105/2118 06016G27KT
Wind
60° at 16 knots
 Gusting to 27 knots
TAF LELC 201700Z 2018/2118 05015KT 9999 SCT025 TX23/2113Z TN14/2106Z PROB30 TEMPO 2018/2022 05016G26KT PROB30 TEMPO 2100/2108 BKN014 PROB30 TEMPO 2105/2118 06016G27KT
Issued Apr-20 @ 17:00 UTC
(2 hours ago)
Valid From Apr-20 @ 18:00 UTC
(39 minutes ago)
Valid To Apr-21 @ 18:00 UTC
(in 23 hours)
Apr-20 @ 18:00 - Apr-21 @ 18:00
Wind Visibility
50° at 15 knots 10,000+ meters
Clouds
  • Scattered at 2,500' AGL
Probability 30% Temporary Apr-20 @ 18:00 - Apr-20 @ 22:00
Wind
50° at 16 knots
 Gusting to 26 knots
Probability 30% Temporary Apr-21 @ 00:00 - Apr-21 @ 08:00
Clouds
  • Broken at 1,400' AGL
Probability 30% Temporary Apr-21 @ 05:00 - Apr-21 @ 18:00
Wind
60° at 16 knots
 Gusting to 27 knots